Time;durP1;ratioP1;P1;durP2;ratioP2;P2;SDS_P1;SDS_P2;PMS_P1;PMS_P2;Temp;Humidity;BMP_temperature;BMP_pressure;BME280_temperature;BME280_humidity;BME280_pressure;Samples;Min_cycle;Max_cycle;Signal;HPM_P1;HPM_P2
2021/05/10 00:07:37;;;;;;;5.05;3.80;;;;;;;12.47;77.21;100249.43;713666;1202;114230;-74
2021/05/10 00:22:59;;;;;;;6.60;3.83;;;;;;;12.18;78.78;100240.88;713654;1203;115700;-75
2021/05/10 00:38:19;;;;;;;5.13;3.90;;;;;;;12.02;80.22;100234.44;712652;1205;114410;-77
2021/05/10 00:53:40;;;;;;;6.70;3.73;;;;;;;11.86;81.17;100227.15;712421;1177;115021;-74
2021/05/10 01:09:01;;;;;;;8.10;4.40;;;;;;;11.65;82.06;100224.73;712919;1192;113801;-75
2021/05/10 01:24:22;;;;;;;12.33;5.73;;;;;;;11.48;82.49;100218.43;712770;1202;114414;-75
2021/05/10 01:39:42;;;;;;;6.40;3.98;;;;;;;11.31;84.55;100233.15;712857;1202;114046;-74
2021/05/10 01:55:03;;;;;;;5.70;4.00;;;;;;;11.12;84.95;100231.37;712480;1202;115034;-74
2021/05/10 02:10:39;;;;;;;5.67;3.67;;;;;;;11.12;86.24;100216.43;712696;1202;113969;-75
2021/05/10 02:26:05;;;;;;;6.30;3.98;;;;;;;11.01;87.62;100234.97;712571;1202;115929;-75
2021/05/10 02:41:26;;;;;;;6.35;4.43;;;;;;;10.91;88.37;100237.58;712689;1203;114380;-74
2021/05/10 02:56:46;;;;;;;6.03;4.23;;;;;;;10.97;87.98;100234.41;712683;1202;115225;-75
2021/05/10 03:12:07;;;;;;;7.05;4.00;;;;;;;10.95;88.80;100238.14;712777;1187;114034;-76
2021/05/10 03:27:28;;;;;;;6.53;5.00;;;;;;;10.88;89.23;100250.99;712857;1206;114357;-76
2021/05/10 03:42:49;;;;;;;7.50;4.77;;;;;;;10.96;90.14;100256.38;714836;1202;114724;-80
2021/05/10 03:58:09;;;;;;;6.20;4.40;;;;;;;11.12;90.76;100253.19;713068;1202;114347;-80
2021/05/10 04:13:37;;;;;;;14.60;12.65;;;;;;;11.70;88.50;100256.67;712762;1205;113650;-75
2021/05/10 04:28:58;;;;;;;14.88;12.65;;;;;;;12.18;87.08;100256.66;713053;1202;114817;-81
2021/05/10 04:44:18;;;;;;;10.95;6.45;;;;;;;12.61;86.43;100261.23;713228;1203;114083;-80
2021/05/10 04:59:39;;;;;;;7.80;5.85;;;;;;;13.15;84.36;100249.88;712877;1202;114191;-80
2021/05/10 05:14:59;;;;;;;9.57;5.67;;;;;;;13.86;83.23;100249.86;715558;1168;114398;-81
2021/05/10 05:30:20;;;;;;;6.13;4.63;;;;;;;14.21;82.71;100256.73;712724;1203;114924;-81
2021/05/10 05:45:42;;;;;;;7.20;5.00;;;;;;;14.63;82.14;100253.25;712485;1192;114875;-82
2021/05/10 06:01:03;;;;;;;9.95;5.10;;;;;;;15.60;78.84;100238.55;712837;1200;114380;-80
2021/05/10 06:16:27;;;;;;;7.85;6.15;;;;;;;16.35;76.58;100242.57;712796;1177;113692;-80
2021/05/10 06:31:48;;;;;;;7.43;4.28;;;;;;;17.01;74.64;100260.70;712815;1177;113826;-80
2021/05/10 06:47:08;;;;;;;7.23;3.45;;;;;;;18.31;65.35;100258.67;712880;1202;114315;-74
2021/05/10 07:02:29;;;;;;;3.45;2.53;;;;;;;19.10;60.81;100247.20;712982;1202;114253;-75
2021/05/10 07:18:11;;;;;;;2.88;2.10;;;;;;;19.78;57.52;100243.14;712527;1205;114221;-76
2021/05/10 07:33:31;;;;;;;5.18;2.58;;;;;;;20.97;55.93;100225.09;714702;1203;113737;-78
2021/05/10 07:48:52;;;;;;;4.87;2.33;;;;;;;21.76;51.95;100212.67;714013;1202;115381;-82
2021/05/10 08:04:12;;;;;;;8.40;2.75;;;;;;;22.21;50.90;100221.70;712954;1202;115113;-79
2021/05/10 08:19:33;;;;;;;2.55;1.90;;;;;;;23.06;50.53;100210.64;712774;1202;114391;-79
2021/05/10 08:34:53;;;;;;;8.97;2.13;;;;;;;24.11;50.26;100216.13;712520;1182;113767;-86
2021/05/10 08:50:15;;;;;;;2.97;1.60;;;;;;;24.65;49.63;100186.72;713758;1202;115494;-87
2021/05/10 09:05:46;;;;;;;3.80;1.83;;;;;;;24.99;46.32;100184.30;713877;1202;114831;-87
2021/05/10 09:21:15;;;;;;;9.67;2.53;;;;;;;25.53;46.71;100184.16;717281;1203;114929;-80
2021/05/10 09:37:01;;;;;;;;;;;;;;;25.35;43.69;100158.30;713129;1196;113908;-80
2021/05/10 09:52:25;;;;;;;2.53;1.70;;;;;;;26.36;45.66;100162.36;715128;1202;100966;-79
2021/05/10 10:07:46;;;;;;;2.13;1.40;;;;;;;26.30;45.19;100146.38;713855;1203;113878;-80
2021/05/10 10:23:07;;;;;;;3.48;2.08;;;;;;;26.50;44.46;100149.42;716570;1202;114443;-79
2021/05/10 10:38:31;;;;;;;5.90;1.63;;;;;;;26.63;42.93;100137.50;715567;1188;114165;-80
2021/05/10 10:53:55;;;;;;;3.80;1.27;;;;;;;27.30;42.93;100132.27;713693;1178;113838;-81
2021/05/10 11:09:16;;;;;;;4.93;1.60;;;;;;;27.96;43.72;100126.82;715072;1203;113701;-80
2021/05/10 11:24:36;;;;;;;1.63;1.27;;;;;;;27.68;43.01;100131.39;713176;1206;114743;-81
2021/05/10 11:39:57;;;;;;;7.63;1.80;;;;;;;28.15;42.23;100137.27;713251;1205;115193;-82
2021/05/10 11:55:21;;;;;;;3.38;1.43;;;;;;;27.97;41.38;100130.34;713879;1177;114231;-82
2021/05/10 12:10:42;;;;;;;3.50;1.30;;;;;;;28.17;42.18;100124.36;714642;1206;113799;-83
2021/05/10 12:26:11;;;;;;;3.10;1.20;;;;;;;27.33;41.84;100121.82;713587;1205;114273;-84
2021/05/10 12:41:31;;;;;;;3.58;1.68;;;;;;;27.59;42.49;100095.20;713030;1203;113648;-83
2021/05/10 12:56:52;;;;;;;1.85;1.38;;;;;;;26.89;42.64;100119.08;713471;1203;114537;-84
2021/05/10 13:12:13;;;;;;;4.80;1.40;;;;;;;27.69;42.10;100084.53;713192;1205;113899;-76
2021/05/10 13:43:44;;;;;;;6.10;1.30;;;;;;;28.16;42.02;100063.41;713139;1202;115214;-79
2021/05/10 13:59:04;;;;;;;5.63;1.27;;;;;;;28.36;41.92;100068.96;713639;1202;115126;-80
2021/05/10 14:14:25;;;;;;;2.75;1.30;;;;;;;28.15;42.56;100081.48;713153;1205;114342;-82
2021/05/10 14:29:47;;;;;;;2.55;1.30;;;;;;;34.21;36.52;100087.68;713222;1205;114992;-79
2021/05/10 14:45:08;;;;;;;2.20;1.60;;;;;;;29.44;40.68;100073.31;714418;1203;113919;-87
2021/05/10 15:00:28;;;;;;;3.35;1.35;;;;;;;27.93;41.98;100080.72;715818;1203;114790;-87
2021/05/10 15:15:49;;;;;;;5.43;2.23;;;;;;;27.28;43.37;100072.46;715706;1206;114380;-86
2021/05/10 15:31:09;;;;;;;5.30;2.30;;;;;;;26.71;43.93;100083.33;715718;1203;114262;-86
2021/05/10 15:46:30;;;;;;;5.90;1.57;;;;;;;25.88;45.52;100069.58;715372;1202;114532;-86
2021/05/10 16:01:51;;;;;;;7.30;1.63;;;;;;;25.37;46.68;100074.84;715506;1202;115151;-87
2021/05/10 16:17:12;;;;;;;5.45;2.30;;;;;;;24.97;47.19;100084.47;714841;1205;113659;-87
2021/05/10 16:32:33;;;;;;;8.65;5.65;;;;;;;24.97;47.49;100089.84;713483;1202;114497;-78
2021/05/10 16:47:54;;;;;;;8.95;3.08;;;;;;;24.81;48.04;100098.58;718548;1176;114241;-79
2021/05/10 17:03:15;;;;;;;6.93;2.45;;;;;;;24.46;48.87;100120.82;714149;1204;114371;-79
2021/05/10 17:18:36;;;;;;;485.33;262.40;;;;;;;24.35;49.19;100119.73;714740;1177;113781;-78
2021/05/10 17:33:58;;;;;;;51.55;29.90;;;;;;;24.14;50.64;100121.92;713714;1177;114461;-77
2021/05/10 17:49:18;;;;;;;10.30;5.57;;;;;;;23.59;52.00;100122.84;713618;1203;114154;-79
2021/05/10 18:04:39;;;;;;;12.57;7.40;;;;;;;22.90;54.32;100105.05;713357;1202;114390;-78
2021/05/10 18:20:00;;;;;;;7.60;2.95;;;;;;;22.08;56.74;100107.77;713179;1202;114496;-79
2021/05/10 18:35:24;;;;;;;5.00;3.58;;;;;;;21.41;58.38;100108.88;712955;1202;114553;-78
2021/05/10 18:50:50;;;;;;;12.47;7.67;;;;;;;20.91;59.47;100129.93;713056;1202;113903;-79
2021/05/10 19:06:14;;;;;;;8.57;4.40;;;;;;;20.63;59.85;100154.92;713778;1202;114598;-77
2021/05/10 19:21:39;;;;;;;6.98;3.55;;;;;;;20.35;60.25;100144.44;713158;1203;114409;-78
2021/05/10 19:37:01;;;;;;;6.73;3.30;;;;;;;20.04;60.81;100151.95;713036;1201;113825;-79
2021/05/10 20:07:48;;;;;;;5.70;2.90;;;;;;;19.49;62.51;100151.91;714197;1180;113764;-79
2021/05/10 20:23:08;;;;;;;5.47;2.97;;;;;;;19.31;62.45;100155.11;714240;1177;114873;-78
2021/05/10 20:38:29;;;;;;;3.63;2.67;;;;;;;19.12;63.39;100157.45;714800;1203;113798;-78
2021/05/10 20:53:50;;;;;;;5.58;2.95;;;;;;;18.71;64.18;100150.15;714608;1195;114699;-79
2021/05/10 21:09:10;;;;;;;6.35;3.25;;;;;;;18.74;64.25;100160.41;715361;1190;113557;-78
2021/05/10 21:24:31;;;;;;;5.77;3.47;;;;;;;18.55;64.90;100164.53;714063;1187;113858;-79
2021/05/10 21:39:52;;;;;;;4.70;2.60;;;;;;;18.36;65.14;100181.13;713786;1205;113681;-77
2021/05/10 21:55:12;;;;;;;3.75;2.70;;;;;;;18.10;65.64;100177.16;714254;1202;114556;-78
2021/05/10 22:10:34;;;;;;;4.90;3.33;;;;;;;17.74;67.06;100183.24;713531;1203;114905;-78
2021/05/10 22:26:17;;;;;;;6.63;3.63;;;;;;;17.54;67.95;100183.80;713566;1202;114472;-78
2021/05/10 22:41:43;;;;;;;7.43;3.75;;;;;;;17.39;68.80;100173.17;712548;1205;113807;-77
2021/05/10 23:13:04;;;;;;;7.33;4.30;;;;;;;16.97;70.55;100166.64;713023;1202;115127;-78
2021/05/10 23:28:24;;;;;;;5.60;4.07;;;;;;;16.67;71.34;100169.20;713051;1205;113610;-79
2021/05/10 23:43:44;;;;;;;4.60;3.40;;;;;;;16.41;72.50;100170.38;712967;1203;113714;-79
2021/05/10 23:59:05;;;;;;;6.58;3.50;;;;;;;16.29;73.67;100162.02;712539;1203;113615;-79
